createdAt,value
2018-10-21T00:01:08.665Z,92.53
2018-10-21T00:03:37.864Z,93.46
2018-10-21T00:06:07.045Z,93.35
2018-10-21T00:08:36.268Z,93.32
2018-10-21T00:11:05.306Z,92.72
2018-10-21T00:13:34.852Z,92.97
2018-10-21T00:16:04.073Z,93.23
2018-10-21T00:18:36.875Z,93.69
2018-10-21T00:21:06.689Z,93.10
2018-10-21T00:23:36.082Z,94.31
2018-10-21T00:26:05.432Z,94.26
2018-10-21T00:28:34.511Z,93.25
2018-10-21T00:31:03.767Z,93.17
2018-10-21T00:33:33.014Z,94.05
2018-10-21T00:36:02.351Z,93.76
2018-10-21T00:38:31.462Z,93.46
2018-10-21T00:41:00.629Z,94.35
2018-10-21T00:43:29.859Z,93.94
2018-10-21T00:45:59.078Z,93.86
2018-10-21T00:48:28.394Z,93.37
2018-10-21T00:50:57.814Z,93.72
2018-10-21T00:53:27.171Z,94.33
2018-10-21T00:55:56.302Z,93.46
2018-10-21T00:58:27.581Z,93.87
2018-10-21T01:00:56.660Z,93.76
2018-10-21T01:03:26.032Z,93.38
2018-10-21T01:05:55.298Z,94.08
2018-10-21T01:08:24.566Z,94.22
2018-10-21T01:10:53.627Z,93.75
2018-10-21T01:13:23.069Z,94.21
2018-10-21T01:15:52.221Z,93.66
2018-10-21T01:18:21.551Z,94.49
2018-10-21T01:20:50.614Z,94.13
2018-10-21T01:23:19.964Z,94.44
2018-10-21T01:25:49.341Z,94.20
2018-10-21T01:28:18.441Z,94.03
2018-10-21T01:30:47.514Z,94.37
2018-10-21T01:33:17.403Z,94.89
2018-10-21T01:35:46.489Z,94.40
2018-10-21T01:38:15.643Z,94.13
2018-10-21T01:40:45.889Z,94.11
2018-10-21T01:43:16.553Z,93.91
2018-10-21T01:45:45.717Z,94.83
2018-10-21T01:48:16.066Z,94.09
2018-10-21T01:50:45.528Z,94.79
2018-10-21T01:53:15.578Z,94.81
2018-10-21T01:55:44.687Z,94.62
2018-10-21T01:58:13.775Z,94.19
2018-10-21T02:00:43.293Z,94.64
2018-10-21T02:03:12.392Z,94.88
2018-10-21T02:05:42.178Z,94.16
2018-10-21T02:08:11.414Z,95.05
2018-10-21T02:10:40.542Z,94.54
2018-10-21T02:13:09.712Z,94.94
2018-10-21T02:15:38.816Z,94.60
2018-10-21T02:18:08.075Z,94.18
2018-10-21T02:20:37.201Z,94.18
2018-10-21T02:23:06.616Z,94.57
2018-10-21T02:25:35.981Z,94.88
2018-10-21T02:28:05.138Z,94.36
2018-10-21T02:30:34.625Z,94.63
2018-10-21T02:33:04.103Z,94.75
2018-10-21T02:35:33.256Z,94.65
2018-10-21T02:38:03.582Z,94.43
2018-10-21T02:42:41.755Z,94.63
2018-10-21T02:45:14.782Z,95.14
2018-10-21T02:47:44.092Z,95.20
2018-10-21T02:50:15.809Z,95.28
2018-10-21T02:52:48.597Z,94.99
2018-10-21T02:55:18.718Z,95.30
2018-10-21T02:57:48.147Z,94.46
2018-10-21T03:00:23.784Z,94.52
2018-10-21T03:02:54.275Z,94.77
2018-10-21T03:05:25.889Z,95.25
2018-10-21T03:08:03.299Z,95.32
2018-10-21T03:13:21.661Z,94.98
2018-10-21T03:15:58.243Z,94.84
2018-10-21T03:18:41.735Z,94.97
2018-10-21T03:21:15.128Z,94.98
2018-10-21T03:23:46.997Z,95.62
2018-10-21T03:26:17.139Z,95.34
2018-10-21T03:28:46.889Z,94.95
2018-10-21T03:31:18.457Z,95.50
2018-10-21T03:33:50.742Z,94.82
2018-10-21T03:36:26.623Z,95.54
2018-10-21T03:39:08.585Z,95.31
2018-10-21T03:41:42.511Z,95.05
2018-10-21T03:44:33.078Z,95.63
2018-10-21T03:47:03.077Z,94.84
2018-10-21T03:49:42.256Z,95.36
2018-10-21T03:54:52.822Z,95.73
2018-10-21T03:57:23.272Z,95.35
2018-10-21T04:03:13.901Z,95.14
2018-10-21T04:08:25.269Z,95.14
2018-10-21T04:13:33.524Z,95.71
2018-10-21T04:16:05.648Z,95.93
2018-10-21T04:18:45.645Z,95.24
2018-10-21T04:21:23.705Z,95.72
2018-10-21T04:23:56.918Z,94.67
2018-10-21T04:40:28.876Z,94.90
2018-10-21T04:42:58.932Z,94.89
2018-10-21T04:45:28.496Z,95.49
2018-10-21T04:48:10.919Z,95.72
2018-10-21T04:50:49.154Z,95.10
2018-10-21T04:53:23.836Z,95.40
2018-10-21T04:55:56.805Z,95.69
2018-10-21T04:58:35.322Z,95.02
2018-10-21T05:01:07.825Z,95.29
2018-10-21T05:03:47.051Z,95.20
2018-10-21T05:06:24.038Z,94.98
2018-10-21T05:12:38.615Z,95.27
2018-10-21T05:15:14.362Z,95.36
2018-10-21T05:18:01.676Z,95.28
2018-10-21T05:20:35.993Z,95.25
2018-10-21T05:23:16.362Z,95.33
2018-10-21T05:26:02.650Z,95.47
2018-10-21T05:28:42.486Z,95.52
2018-10-21T05:31:19.610Z,95.54
2018-10-21T05:34:04.473Z,95.77
2018-10-21T05:37:14.341Z,96.11
2018-10-21T05:39:54.146Z,95.48
2018-10-21T05:42:25.800Z,95.33
2018-10-21T05:59:29.873Z,96.60
2018-10-21T06:01:59.286Z,96.87
2018-10-21T06:04:28.551Z,96.41
2018-10-21T06:06:57.995Z,95.80
2018-10-21T06:09:27.381Z,95.83
2018-10-21T06:11:57.611Z,96.29
2018-10-21T06:14:26.994Z,95.89
2018-10-21T06:17:06.305Z,95.74
2018-10-21T06:19:39.905Z,96.69
2018-10-21T06:22:09.163Z,95.83
2018-10-21T06:24:38.349Z,95.49
2018-10-21T06:27:07.669Z,95.96
2018-10-21T06:29:37.811Z,96.80
2018-10-21T06:32:07.032Z,96.54
2018-10-21T06:34:36.060Z,96.67
2018-10-21T06:37:05.311Z,96.38
2018-10-21T06:39:34.776Z,95.86
2018-10-21T06:42:03.922Z,96.29
2018-10-21T06:44:32.948Z,95.98
2018-10-21T06:47:01.988Z,96.13
2018-10-21T06:49:32.294Z,96.35
2018-10-21T06:52:01.200Z,95.73
2018-10-21T06:54:30.331Z,96.48
2018-10-21T06:56:59.442Z,95.86
2018-10-21T06:59:28.591Z,96.09
2018-10-21T07:01:57.523Z,96.24
2018-10-21T07:04:26.589Z,96.20
2018-10-21T07:06:55.507Z,95.69
2018-10-21T07:09:24.401Z,96.42
2018-10-21T07:11:53.381Z,95.78
2018-10-21T07:14:22.616Z,95.86
2018-10-21T07:16:51.705Z,96.30
2018-10-21T07:19:20.731Z,96.20
2018-10-21T07:21:49.787Z,95.91
2018-10-21T07:24:19.014Z,95.91
2018-10-21T07:26:48.311Z,95.99
2018-10-21T07:29:18.556Z,95.15
2018-10-21T07:31:47.591Z,95.08
2018-10-21T07:34:16.936Z,94.35
2018-10-21T07:36:45.870Z,94.14
2018-10-21T07:39:15.035Z,94.23
2018-10-21T07:41:44.081Z,94.47
2018-10-21T07:44:13.372Z,94.04
2018-10-21T07:46:42.423Z,93.68
2018-10-21T07:49:11.757Z,93.53
2018-10-21T07:51:41.101Z,93.33
2018-10-21T07:54:10.048Z,93.32
2018-10-21T07:56:39.244Z,93.25
2018-10-21T07:59:08.147Z,93.10
2018-10-21T08:01:37.065Z,93.02
2018-10-21T08:04:06.545Z,92.94
2018-10-21T08:06:46.271Z,92.65
2018-10-21T08:09:15.287Z,92.83
2018-10-21T08:11:44.338Z,92.61
2018-10-21T08:14:13.303Z,92.82
2018-10-21T08:16:42.475Z,92.34
2018-10-21T08:19:11.579Z,92.67
2018-10-21T08:21:40.826Z,92.21
2018-10-21T08:24:10.208Z,92.62
2018-10-21T08:26:39.214Z,92.42
2018-10-21T08:29:08.278Z,91.91
2018-10-21T08:31:37.473Z,92.10
2018-10-21T08:34:06.543Z,91.27
2018-10-21T08:36:35.348Z,91.33
2018-10-21T08:39:05.790Z,91.15
2018-10-21T08:41:34.985Z,91.26
2018-10-21T08:44:04.226Z,91.25
2018-10-21T08:46:33.439Z,91.02
2018-10-21T08:49:02.328Z,90.73
2018-10-21T08:51:31.211Z,90.42
2018-10-21T08:54:00.220Z,90.76
2018-10-21T08:56:29.256Z,90.36
2018-10-21T08:58:58.883Z,90.30
2018-10-21T09:01:27.847Z,90.30
2018-10-21T09:03:57.156Z,89.97
2018-10-21T09:06:26.302Z,89.69
2018-10-21T09:08:55.588Z,89.82
2018-10-21T09:11:24.607Z,89.68
2018-10-21T09:13:53.839Z,88.92
2018-10-21T09:16:22.920Z,88.78
2018-10-21T09:18:51.963Z,89.11
2018-10-21T09:21:21.073Z,89.34
2018-10-21T09:23:50.317Z,88.63
2018-10-21T09:26:19.198Z,88.58
2018-10-21T09:28:48.145Z,87.93
2018-10-21T09:31:17.171Z,88.04
2018-10-21T09:33:46.231Z,88.09
2018-10-21T09:36:15.289Z,87.11
2018-10-21T09:38:44.597Z,87.44
2018-10-21T09:41:14.744Z,87.03
2018-10-21T09:43:43.747Z,87.18
2018-10-21T09:46:12.992Z,86.77
2018-10-21T09:48:42.144Z,86.59
2018-10-21T09:51:11.204Z,86.25
2018-10-21T09:53:40.498Z,85.98
2018-10-21T09:56:09.639Z,84.79
2018-10-21T09:58:38.755Z,84.64
2018-10-21T10:01:12.826Z,84.10
2018-10-21T10:03:41.942Z,83.78
2018-10-21T10:06:11.116Z,83.44
2018-10-21T10:08:40.310Z,83.14
2018-10-21T10:11:09.455Z,82.62
2018-10-21T10:13:38.373Z,82.46
2018-10-21T10:16:08.242Z,81.46
2018-10-21T10:18:37.470Z,81.31
2018-10-21T10:21:07.054Z,79.94
2018-10-21T10:23:37.012Z,79.97
2018-10-21T10:26:06.010Z,79.17
2018-10-21T10:28:34.861Z,79.17
2018-10-21T10:31:04.103Z,79.06
2018-10-21T10:33:33.349Z,78.58
2018-10-21T10:36:02.228Z,78.46
2018-10-21T10:38:31.496Z,78.16
2018-10-21T10:41:01.403Z,77.91
2018-10-21T10:43:30.599Z,77.49
2018-10-21T10:45:59.753Z,77.04
2018-10-21T10:48:28.713Z,77.19
2018-10-21T10:50:57.685Z,76.55
2018-10-21T10:53:26.712Z,75.45
2018-10-21T10:55:55.771Z,75.09
2018-10-21T10:58:25.232Z,75.22
2018-10-21T11:00:54.203Z,74.26
2018-10-21T11:03:23.280Z,74.19
2018-10-21T11:05:52.488Z,73.98
2018-10-21T11:08:21.524Z,73.74
2018-10-21T11:10:50.493Z,73.30
2018-10-21T11:13:19.919Z,72.26
2018-10-21T11:15:49.067Z,72.04
2018-10-21T11:18:18.316Z,71.64
2018-10-21T11:20:48.380Z,71.21
2018-10-21T11:23:17.426Z,71.04
2018-10-21T11:25:46.376Z,70.71
2018-10-21T11:28:15.417Z,70.93
2018-10-21T11:30:44.605Z,70.64
2018-10-21T11:33:13.779Z,69.41
2018-10-21T11:35:43.006Z,69.04
2018-10-21T11:38:12.097Z,68.95
2018-10-21T11:40:41.047Z,68.37
2018-10-21T11:43:10.459Z,67.48
2018-10-21T11:45:39.698Z,67.36
2018-10-21T11:48:08.647Z,67.35
2018-10-21T11:50:38.790Z,67.13
2018-10-21T11:53:08.122Z,66.41
2018-10-21T11:55:40.498Z,66.02
2018-10-21T11:58:12.193Z,66.13
2018-10-21T12:00:41.425Z,65.46
2018-10-21T12:03:11.325Z,65.61
2018-10-21T12:05:41.479Z,64.89
2018-10-21T12:08:10.993Z,65.33
2018-10-21T12:10:40.192Z,64.99
2018-10-21T12:13:09.254Z,64.81
2018-10-21T12:15:38.316Z,63.73
2018-10-21T12:18:07.995Z,64.20
2018-10-21T12:20:37.158Z,63.98
2018-10-21T12:23:06.450Z,61.24
2018-10-21T12:25:35.708Z,61.01
2018-10-21T12:28:05.001Z,60.68
2018-10-21T12:30:34.374Z,60.09
2018-10-21T12:33:03.602Z,58.68
2018-10-21T12:35:32.617Z,58.07
2018-10-21T12:38:01.795Z,58.25
2018-10-21T12:40:30.971Z,56.80
2018-10-21T12:42:59.985Z,56.12
2018-10-21T12:45:29.074Z,55.71
2018-10-21T12:47:57.980Z,54.70
2018-10-21T12:50:26.917Z,54.17
2018-10-21T12:52:56.178Z,54.45
2018-10-21T12:55:25.247Z,54.67
2018-10-21T12:57:54.605Z,54.83
2018-10-21T13:00:23.941Z,54.54
2018-10-21T13:02:53.256Z,52.84
2018-10-21T13:05:22.271Z,53.96
2018-10-21T13:07:51.265Z,52.27
2018-10-21T13:10:20.203Z,52.63
2018-10-21T13:12:49.308Z,53.04
2018-10-21T13:15:18.438Z,52.86
2018-10-21T13:17:47.421Z,52.89
2018-10-21T13:20:16.382Z,52.15
2018-10-21T13:22:45.588Z,51.22
2018-10-21T13:25:15.026Z,50.81
2018-10-21T13:27:44.084Z,51.57
2018-10-21T13:30:13.098Z,53.16
2018-10-21T13:32:42.088Z,51.26
2018-10-21T13:35:11.156Z,46.11
2018-10-21T13:37:40.152Z,38.43
2018-10-21T13:40:09.294Z,35.31
2018-10-21T13:42:38.221Z,34.21
2018-10-21T13:45:07.724Z,33.39
2018-10-21T13:47:36.758Z,35.05
2018-10-21T13:50:06.746Z,31.79
2018-10-21T13:52:35.846Z,32.25
2018-10-21T13:55:04.896Z,28.75
2018-10-21T13:57:33.981Z,25.53
2018-10-21T14:00:03.044Z,29.21
2018-10-21T14:02:31.949Z,30.40
2018-10-21T14:05:01.197Z,29.99
2018-10-21T14:07:30.132Z,30.14
2018-10-21T14:09:59.110Z,31.84
2018-10-21T14:12:28.029Z,30.39
2018-10-21T14:14:57.239Z,28.50
2018-10-21T14:17:26.307Z,28.21
2018-10-21T14:19:55.577Z,27.50
2018-10-21T14:22:24.561Z,26.52
2018-10-21T14:24:53.785Z,25.96
2018-10-21T14:27:22.834Z,27.08
2018-10-21T14:29:51.817Z,28.60
2018-10-21T14:32:21.662Z,27.29
2018-10-21T14:34:50.822Z,24.88
2018-10-21T14:37:19.817Z,26.63
2018-10-21T14:39:48.889Z,26.82
2018-10-21T14:42:17.953Z,26.81
2018-10-21T14:44:46.916Z,26.70
2018-10-21T14:47:15.941Z,25.99
2018-10-21T14:49:44.871Z,26.65
2018-10-21T14:52:13.991Z,27.19
2018-10-21T14:54:43.153Z,28.05
2018-10-21T14:57:12.120Z,28.34
2018-10-21T14:59:41.147Z,28.63
2018-10-21T15:02:10.480Z,28.37
2018-10-21T15:04:39.532Z,28.70
2018-10-21T15:07:08.559Z,29.36
2018-10-21T15:09:37.517Z,30.70
2018-10-21T15:12:07.039Z,30.37
2018-10-21T15:14:35.932Z,32.49
2018-10-21T15:17:05.252Z,32.29
2018-10-21T15:19:34.356Z,32.78
2018-10-21T15:22:03.571Z,32.57
2018-10-21T15:24:32.577Z,32.94
2018-10-21T15:27:01.590Z,32.92
2018-10-21T15:29:30.653Z,32.70
2018-10-21T15:32:00.046Z,32.26
2018-10-21T15:34:29.015Z,32.04
2018-10-21T15:36:58.108Z,33.13
2018-10-21T15:39:27.367Z,35.76
2018-10-21T15:41:56.445Z,37.12
2018-10-21T15:44:26.180Z,38.80
2018-10-21T15:46:55.279Z,40.35
2018-10-21T15:49:24.323Z,41.39
2018-10-21T15:51:53.465Z,42.56
2018-10-21T15:54:22.391Z,44.32
2018-10-21T15:56:51.479Z,45.46
2018-10-21T15:59:21.344Z,46.38
2018-10-21T16:01:50.669Z,48.02
2018-10-21T16:04:19.612Z,48.60
2018-10-21T16:06:48.647Z,49.96
2018-10-21T16:09:17.881Z,50.96
2018-10-21T16:11:46.910Z,51.83
2018-10-21T16:14:16.178Z,53.03
2018-10-21T16:16:45.352Z,53.80
2018-10-21T16:19:14.769Z,54.67
2018-10-21T16:21:44.799Z,55.58
2018-10-21T16:24:13.979Z,56.53
2018-10-21T16:26:42.999Z,57.36
2018-10-21T16:29:12.154Z,57.81
2018-10-21T16:31:41.179Z,58.77
2018-10-21T16:34:10.257Z,59.73
2018-10-21T16:36:39.184Z,60.53
2018-10-21T16:39:10.337Z,61.10
2018-10-21T16:41:39.379Z,61.88
2018-10-21T16:44:08.679Z,62.79
2018-10-21T16:46:37.857Z,62.96
2018-10-21T16:49:07.116Z,63.80
2018-10-21T16:51:36.536Z,64.24
2018-10-21T16:54:05.675Z,64.94
2018-10-21T16:56:34.597Z,66.12
2018-10-21T16:59:03.700Z,66.91
2018-10-21T17:01:32.677Z,67.09
2018-10-21T17:04:01.729Z,67.46
2018-10-21T17:06:31.869Z,68.13
2018-10-21T17:09:01.343Z,68.59
2018-10-21T17:11:31.335Z,69.25
2018-10-21T17:14:00.783Z,69.75
2018-10-21T17:16:30.090Z,70.55
2018-10-21T17:18:59.201Z,71.17
2018-10-21T17:21:28.489Z,71.70
2018-10-21T17:23:57.656Z,72.20
2018-10-21T17:26:26.805Z,72.75
2018-10-21T17:28:56.783Z,72.43
2018-10-21T17:31:26.911Z,73.29
2018-10-21T17:33:56.171Z,73.71
2018-10-21T17:36:25.452Z,73.71
2018-10-21T17:38:54.625Z,73.95
2018-10-21T17:41:23.965Z,74.49
2018-10-21T17:43:53.050Z,75.45
2018-10-21T17:46:22.683Z,75.47
2018-10-21T17:48:52.395Z,75.94
2018-10-21T17:51:21.650Z,76.27
2018-10-21T17:53:50.907Z,76.43
2018-10-21T17:56:20.179Z,76.34
2018-10-21T17:58:49.331Z,77.32
2018-10-21T18:01:18.896Z,77.60
2018-10-21T18:03:48.044Z,78.09
2018-10-21T18:06:17.424Z,77.67
2018-10-21T18:08:46.787Z,78.50
2018-10-21T18:11:16.180Z,78.73
2018-10-21T18:13:45.513Z,78.96
2018-10-21T18:16:15.117Z,79.53
2018-10-21T18:18:44.488Z,79.31
2018-10-21T18:21:13.839Z,79.59
2018-10-21T18:23:43.029Z,79.47
2018-10-21T18:26:12.371Z,80.45
2018-10-21T18:28:41.649Z,80.48
2018-10-21T18:31:10.983Z,80.32
2018-10-21T18:33:40.320Z,80.65
2018-10-21T18:36:09.751Z,80.81
2018-10-21T18:38:39.073Z,81.45
2018-10-21T18:41:08.405Z,81.11
2018-10-21T18:43:37.652Z,81.60
2018-10-21T18:46:07.059Z,81.82
2018-10-21T18:48:36.366Z,82.24
2018-10-21T18:51:06.085Z,82.19
2018-10-21T18:53:35.523Z,82.07
2018-10-21T18:56:04.812Z,82.89
2018-10-21T18:58:34.150Z,82.58
2018-10-21T19:01:04.142Z,83.09
2018-10-21T19:03:33.605Z,82.97
2018-10-21T19:06:03.034Z,83.57
2018-10-21T19:08:32.148Z,83.34
2018-10-21T19:11:01.511Z,83.89
2018-10-21T19:13:30.957Z,84.13
2018-10-21T19:16:00.125Z,84.16
2018-10-21T19:18:29.409Z,83.61
2018-10-21T19:21:00.203Z,84.63
2018-10-21T19:23:29.889Z,84.37
2018-10-21T19:26:00.226Z,84.99
2018-10-21T19:28:29.649Z,84.17
2018-10-21T19:30:58.941Z,84.44
2018-10-21T19:33:28.243Z,84.48
2018-10-21T19:35:57.542Z,84.99
2018-10-21T19:38:26.855Z,85.43
2018-10-21T19:40:56.192Z,85.61
2018-10-21T19:43:25.576Z,84.87
2018-10-21T19:45:55.406Z,85.54
2018-10-21T19:48:24.718Z,85.72
2018-10-21T19:50:54.016Z,85.45
2018-10-21T19:53:23.332Z,86.23
2018-10-21T19:55:52.757Z,86.08
2018-10-21T19:58:21.890Z,86.02
2018-10-21T20:00:51.208Z,86.90
2018-10-21T20:03:20.234Z,86.29
2018-10-21T20:05:49.684Z,86.84
2018-10-21T20:08:18.929Z,87.14
2018-10-21T20:10:47.945Z,87.21
2018-10-21T20:13:17.535Z,87.27
2018-10-21T20:15:46.515Z,86.89
2018-10-21T20:18:15.668Z,86.85
2018-10-21T20:20:44.942Z,87.11
2018-10-21T20:23:14.065Z,87.13
2018-10-21T20:25:43.072Z,86.76
2018-10-21T20:28:12.223Z,86.99
2018-10-21T20:30:41.171Z,87.18
2018-10-21T20:33:10.445Z,86.35
2018-10-21T20:35:39.627Z,86.72
2018-10-21T20:38:08.739Z,86.69
2018-10-21T20:40:37.926Z,86.61
2018-10-21T20:43:07.028Z,86.97
2018-10-21T20:45:36.254Z,86.61
2018-10-21T20:48:05.447Z,86.92
2018-10-21T20:50:34.694Z,86.82
2018-10-21T20:53:03.794Z,86.54
2018-10-21T20:55:33.039Z,86.44
2018-10-21T20:58:02.215Z,86.54
2018-10-21T21:00:31.074Z,86.53
2018-10-21T21:03:00.222Z,86.13
2018-10-21T21:05:29.285Z,86.36
2018-10-21T21:07:58.570Z,86.47
2018-10-21T21:10:27.590Z,86.32
2018-10-21T21:12:57.379Z,86.30
2018-10-21T21:15:26.313Z,85.80
2018-10-21T21:17:55.622Z,86.25
2018-10-21T21:20:24.592Z,85.85
2018-10-21T21:22:53.927Z,85.81
2018-10-21T21:25:22.971Z,85.64
2018-10-21T21:27:51.992Z,85.86
2018-10-21T21:30:21.153Z,85.49
2018-10-21T21:32:50.033Z,85.78
2018-10-21T21:35:19.049Z,85.36
2018-10-21T21:37:48.191Z,85.74
2018-10-21T21:40:17.319Z,85.25
2018-10-21T21:42:46.491Z,85.31
2018-10-21T21:45:15.464Z,84.82
2018-10-21T21:47:45.708Z,84.62
2018-10-21T21:50:14.711Z,84.92
2018-10-21T21:52:43.990Z,84.84
2018-10-21T21:55:12.952Z,84.43
2018-10-21T21:57:42.105Z,84.42
2018-10-21T22:00:13.528Z,84.06
2018-10-21T22:02:42.600Z,84.25
2018-10-21T22:05:11.679Z,83.95
2018-10-21T22:07:41.167Z,84.03
2018-10-21T22:10:12.340Z,83.83
2018-10-21T22:12:41.530Z,83.98
2018-10-21T22:15:10.799Z,84.02
2018-10-21T22:17:40.559Z,83.94
2018-10-21T22:20:09.973Z,83.17
2018-10-21T22:22:38.910Z,83.36
2018-10-21T22:25:07.871Z,83.17
2018-10-21T22:27:36.858Z,83.29
2018-10-21T22:30:07.095Z,83.21
2018-10-21T22:32:36.203Z,82.69
2018-10-21T22:35:05.971Z,82.88
2018-10-21T22:37:35.200Z,82.31
2018-10-21T22:40:04.250Z,82.44
2018-10-21T22:42:33.240Z,82.40
2018-10-21T22:45:02.381Z,81.70
2018-10-21T22:47:31.248Z,82.09
2018-10-21T22:50:00.595Z,81.70
2018-10-21T22:52:29.511Z,81.36
2018-10-21T22:54:58.685Z,81.52
2018-10-21T22:57:27.501Z,81.47
2018-10-21T22:59:56.579Z,81.84
2018-10-21T23:02:25.474Z,81.39
2018-10-21T23:04:54.416Z,81.66
2018-10-21T23:07:23.331Z,81.68
2018-10-21T23:09:52.480Z,81.09
2018-10-21T23:12:21.331Z,81.10
2018-10-21T23:14:50.297Z,81.40
2018-10-21T23:17:19.254Z,81.06
2018-10-21T23:19:50.459Z,80.54
2018-10-21T23:22:19.583Z,80.33
2018-10-21T23:24:48.589Z,80.70
2018-10-21T23:27:17.637Z,80.18
2018-10-21T23:29:46.712Z,80.40
2018-10-21T23:32:15.795Z,79.67
2018-10-21T23:34:44.692Z,79.87
2018-10-21T23:37:13.531Z,79.30
2018-10-21T23:39:42.457Z,79.47
2018-10-21T23:42:11.441Z,79.37
2018-10-21T23:44:41.164Z,78.78
2018-10-21T23:47:10.106Z,79.09
2018-10-21T23:49:39.062Z,78.65
2018-10-21T23:52:08.756Z,78.67
2018-10-21T23:54:37.576Z,78.61
2018-10-21T23:57:07.606Z,78.65
2018-10-21T23:59:37.094Z,78.15
